Time;durP1;ratioP1;P1;durP2;ratioP2;P2;SDS_P1;SDS_P2;PMS_P1;PMS_P2;Temp;Humidity;BMP_temperature;BMP_pressure;BME280_temperature;BME280_humidity;BME280_pressure;Samples;Min_cycle;Max_cycle;Signal;HPM_P1;HPM_P2
2021/12/14 00:00:19;;;;;;;9.57;5.72;;;;;;;6.46;100.00;101723.19;6044067;29;20621;-93
2021/12/14 00:04:01;;;;;;;9.35;5.60;;;;;;;6.44;100.00;101721.56;6059183;29;20029;-94
2021/12/14 00:07:24;;;;;;;8.25;5.95;;;;;;;6.49;100.00;101721.38;6037970;29;20105;-94
2021/12/14 00:14:12;;;;;;;7.32;4.43;;;;;;;6.50;100.00;101720.47;6219297;23;20030;31
2021/12/14 00:18:03;;;;;;;8.30;4.38;;;;;;;6.48;100.00;101720.53;6055601;29;20037;-94
2021/12/14 00:21:49;;;;;;;8.50;4.93;;;;;;;6.52;100.00;101722.06;6040499;29;20077;-94
2021/12/14 00:25:18;;;;;;;7.97;4.32;;;;;;;6.47;100.00;101724.84;5975234;24;20036;-94
2021/12/14 00:28:59;;;;;;;9.82;5.40;;;;;;;6.43;100.00;101731.03;6123004;23;20049;-94
2021/12/14 00:32:23;;;;;;;7.72;5.72;;;;;;;6.42;100.00;101725.94;6065316;29;20068;-93
2021/12/14 00:36:09;;;;;;;8.43;4.80;;;;;;;6.41;100.00;101729.41;6229390;23;20045;-94
2021/12/14 00:39:44;;;;;;;8.38;4.97;;;;;;;6.35;100.00;101719.38;5744334;23;20028;-94
2021/12/14 00:46:37;;;;;;;8.05;4.88;;;;;;;6.36;100.00;101726.19;4654218;23;4277247;-93
2021/12/14 00:49:54;;;;;;;7.68;4.35;;;;;;;6.33;100.00;101721.19;5764990;23;20049;-94
2021/12/14 00:53:10;;;;;;;7.28;4.50;;;;;;;6.35;100.00;101724.53;6042452;29;20058;-94
2021/12/14 00:56:52;;;;;;;7.07;4.88;;;;;;;6.35;100.00;101719.38;6040922;29;20074;-94
2021/12/14 01:00:11;;;;;;;7.88;4.97;;;;;;;6.32;100.00;101711.81;6036309;29;20515;-94
2021/12/14 01:04:15;;;;;;;10.60;4.90;;;;;;;6.30;100.00;101711.84;6087730;29;20029;-94
2021/12/14 01:08:17;;;;;;;8.95;5.15;;;;;;;6.29;100.00;101717.91;6591755;23;20052;-94
2021/12/14 01:11:49;;;;;;;8.43;4.80;;;;;;;6.29;100.00;101715.34;6162980;23;20080;-94
2021/12/14 01:15:59;;;;;;;9.85;4.95;;;;;;;6.30;100.00;101721.31;6054270;29;20046;-94
2021/12/14 01:19:33;;;;;;;6.35;4.63;;;;;;;6.28;100.00;101712.81;6118959;23;20032;-93
2021/12/14 01:22:53;;;;;;;9.93;5.00;;;;;;;6.27;100.00;101724.84;6070061;29;20048;-94
2021/12/14 01:26:26;;;;;;;8.00;4.55;;;;;;;6.30;100.00;101727.28;6106267;24;20055;-94
2021/12/14 01:29:49;;;;;;;7.68;4.78;;;;;;;6.25;100.00;101734.34;6107675;23;20056;-94
2021/12/14 01:33:23;;;;;;;9.80;4.78;;;;;;;6.24;100.00;101748.13;6019106;23;20072;-94
2021/12/14 01:37:08;;;;;;;7.95;5.15;;;;;;;6.20;100.00;101752.53;6064852;29;20048;-94
2021/12/14 01:40:58;;;;;;;7.82;5.22;;;;;;;6.18;100.00;101759.47;6085077;29;20046;-94
2021/12/14 01:44:32;;;;;;;8.43;5.18;;;;;;;6.16;100.00;101745.88;6071518;29;20053;-94
2021/12/14 01:48:17;;;;;;;9.35;5.38;;;;;;;6.15;100.00;101731.31;6187608;24;20047;-94
2021/12/14 01:51:52;;;;;;;9.48;5.60;;;;;;;6.14;100.00;101718.56;5726904;23;20045;-93
2021/12/14 01:55:12;;;;;;;8.65;5.40;;;;;;;6.15;100.00;101718.47;6157711;24;20065;-94
2021/12/14 01:58:48;;;;;;;8.43;5.03;;;;;;;6.14;100.00;101708.28;6127287;24;20044;-94
2021/12/14 02:05:36;;;;;;;8.25;5.13;;;;;;;6.13;100.00;101694.56;6025795;29;20090;-94
2021/12/14 02:09:15;;;;;;;9.13;5.15;;;;;;;6.14;100.00;101690.28;6051921;29;20065;-93
2021/12/14 02:12:46;;;;;;;8.40;5.38;;;;;;;6.13;100.00;101693.72;6214233;24;20045;-94
2021/12/14 02:16:21;;;;;;;10.27;5.88;;;;;;;6.12;100.00;101686.94;6012264;23;20080;-94
2021/12/14 02:19:51;;;;;;;7.28;4.68;;;;;;;6.12;100.00;101679.22;5294665;23;20041;-94
2021/12/14 02:27:48;;;;;;;9.30;5.80;;;;;;;6.12;100.00;101672.34;5897241;24;20072;-94
2021/12/14 02:31:14;;;;;;;7.90;5.25;;;;;;;6.13;100.00;101670.59;6097243;23;20040;-94
2021/12/14 02:34:26;;;;;;;9.75;5.28;;;;;;;6.11;100.00;101656.97;5969066;23;20082;-94
2021/12/14 02:37:46;;;;;;;8.13;5.35;;;;;;;6.12;100.00;101650.94;5830241;23;20055;-94
2021/12/14 02:41:28;;;;;;;11.20;5.50;;;;;;;6.09;100.00;101636.47;6010896;29;20038;-94
2021/12/14 02:45:09;;;;;;;9.57;5.53;;;;;;;6.09;100.00;101638.19;6036244;29;20057;-94
2021/12/14 02:48:54;;;;;;;8.05;5.35;;;;;;;6.11;100.00;101637.25;5922763;27;20057;-94
2021/12/14 02:52:43;;;;;;;8.20;5.00;;;;;;;6.10;100.00;101617.56;6054445;29;20057;-94
2021/12/14 02:55:59;;;;;;;8.70;5.03;;;;;;;6.07;100.00;101610.00;6062362;29;20037;-94
2021/12/14 02:59:22;;;;;;;8.63;4.88;;;;;;;6.08;100.00;101610.84;5206584;23;20406;-94
2021/12/14 03:02:42;;;;;;;8.63;4.68;;;;;;;6.08;100.00;101597.97;6031450;29;20049;-94
2021/12/14 03:06:11;;;;;;;8.48;5.40;;;;;;;6.12;100.00;101596.97;6054952;24;20071;-92
2021/12/14 03:09:41;;;;;;;8.38;6.15;;;;;;;6.10;100.00;101593.63;6077689;23;20088;-94
2021/12/14 03:13:19;;;;;;;7.30;4.80;;;;;;;6.08;100.00;101585.13;6058835;29;20052;-94
2021/12/14 03:16:50;;;;;;;8.23;5.18;;;;;;;6.07;100.00;101586.88;5460465;23;20061;-94
2021/12/14 03:20:22;;;;;;;8.02;5.03;;;;;;;6.05;100.00;101575.81;6148776;23;20049;-94
2021/12/14 03:23:54;;;;;;;10.07;6.05;;;;;;;6.10;100.00;101578.19;6111941;24;20049;-94
2021/12/14 03:27:15;;;;;;;9.10;5.63;;;;;;;6.08;100.00;101580.00;5870770;24;20051;-94
2021/12/14 03:30:40;;;;;;;8.15;5.15;;;;;;;6.09;100.00;101579.06;6064043;29;20093;-94
2021/12/14 03:33:57;;;;;;;8.45;5.57;;;;;;;6.10;100.00;101580.75;6339519;23;21000;-92
2021/12/14 03:37:23;;;;;;;7.15;5.60;;;;;;;6.12;100.00;101590.06;6104223;24;20048;-94
2021/12/14 03:41:12;;;;;;;8.27;5.25;;;;;;;6.10;100.00;101591.88;6005234;29;20058;-92
2021/12/14 03:44:29;;;;;;;7.53;5.18;;;;;;;6.11;100.00;101591.00;6100455;23;20084;-92
2021/12/14 03:47:43;;;;;;;7.05;4.43;;;;;;;6.10;100.00;101594.44;6245927;23;20073;-94
2021/12/14 03:51:03;;;;;;;6.80;4.50;;;;;;;6.10;100.00;101598.75;6417371;23;20077;-91
2021/12/14 03:54:18;;;;;;;7.25;4.70;;;;;;;6.03;100.00;101604.13;6326078;23;20092;-94
2021/12/14 03:58:22;;;;;;;5.97;4.53;;;;;;;6.00;100.00;101612.00;4361084;23;20205;31
2021/12/14 04:05:23;;;;;;;7.22;4.38;;;;;;;5.99;100.00;101619.78;6087918;23;20049;-94
2021/12/14 04:08:37;;;;;;;6.28;4.68;;;;;;;5.98;100.00;101618.09;6052779;29;20045;-94
2021/12/14 04:11:55;;;;;;;;;;;;;;;5.96;100.00;101615.59;6034474;29;20026;-94
2021/12/14 04:15:33;;;;;;;6.80;4.82;;;;;;;5.96;100.00;101627.59;6017795;29;19913;-94
2021/12/14 04:19:04;;;;;;;8.02;5.10;;;;;;;5.94;100.00;101622.53;6045732;29;20057;-94
2021/12/14 04:22:24;;;;;;;8.05;4.90;;;;;;;5.95;100.00;101625.94;6046054;29;20053;-94
2021/12/14 04:26:04;;;;;;;6.05;4.40;;;;;;;5.94;100.00;101621.72;6059869;23;20121;-93
2021/12/14 04:33:46;;;;;;;9.18;4.85;;;;;;;5.92;100.00;101624.31;6108205;29;20052;-91
2021/12/14 04:36:53;;;;;;;6.07;4.38;;;;;;;5.92;100.00;101608.06;6092377;29;20108;-92
2021/12/14 04:51:54;;;;;;;6.00;4.45;;;;;;;5.92;100.00;101592.63;6159248;23;20041;31
2021/12/14 04:54:54;;;;;;;;;;;;;;;5.91;100.00;101586.63;6032958;29;20109;-92
2021/12/14 04:57:57;;;;;;;6.15;4.60;;;;;;;5.91;100.00;101585.81;6109104;24;19914;-91
2021/12/14 05:01:03;;;;;;;8.43;5.00;;;;;;;5.94;100.00;101584.00;6068350;29;20041;-92
2021/12/14 05:04:11;;;;;;;7.47;5.10;;;;;;;5.94;100.00;101581.41;6071043;29;20041;-92
2021/12/14 05:10:52;;;;;;;9.40;5.50;;;;;;;5.94;100.00;101584.00;6070072;29;20045;-92
2021/12/14 05:14:02;;;;;;;8.15;5.53;;;;;;;5.95;100.00;101589.97;6048976;29;20045;-92
2021/12/14 05:17:18;;;;;;;10.00;6.22;;;;;;;5.98;100.00;101585.50;6065852;29;20041;-92
2021/12/14 05:20:22;;;;;;;8.60;5.97;;;;;;;6.01;100.00;101587.13;6072231;29;20052;-92
2021/12/14 05:23:31;;;;;;;8.10;5.30;;;;;;;6.07;100.00;101589.44;6056464;29;20060;-91
2021/12/14 05:26:35;;;;;;;9.52;5.68;;;;;;;6.06;100.00;101585.19;6056608;29;20041;-92
2021/12/14 05:29:40;;;;;;;8.80;5.60;;;;;;;6.06;100.00;101585.19;6071030;29;20056;-91
2021/12/14 05:32:43;;;;;;;9.57;6.07;;;;;;;6.12;100.00;101584.09;6073545;29;20025;-92
2021/12/14 05:35:48;;;;;;;9.20;5.20;;;;;;;6.10;100.00;101591.03;6069972;29;20051;-92
2021/12/14 05:46:23;;;;;;;10.90;6.28;;;;;;;6.11;100.00;101588.41;6060037;29;20037;-92
2021/12/14 05:49:47;;;;;;;9.07;5.90;;;;;;;6.06;100.00;101585.19;6035037;29;20061;-91
2021/12/14 05:52:49;;;;;;;9.18;6.35;;;;;;;6.06;100.00;101584.34;6054696;29;20064;-92
2021/12/14 05:55:53;;;;;;;10.38;6.30;;;;;;;6.10;100.00;101585.91;6062454;29;20046;-92
2021/12/14 05:58:58;;;;;;;9.18;6.07;;;;;;;6.11;100.00;101585.84;6061787;29;20051;-92
2021/12/14 06:02:03;;;;;;;8.85;6.22;;;;;;;6.19;100.00;101580.38;6058351;29;20049;-92
2021/12/14 06:05:11;;;;;;;10.15;6.40;;;;;;;6.16;100.00;101581.34;6083050;29;20066;-91
2021/12/14 06:08:19;;;;;;;10.85;5.95;;;;;;;6.13;100.00;101586.59;6055953;29;20040;-92
2021/12/14 06:11:25;;;;;;;10.25;6.63;;;;;;;6.12;100.00;101572.09;6053667;29;20053;-92
2021/12/14 06:14:30;;;;;;;8.38;5.80;;;;;;;6.11;100.00;101577.28;6047147;29;20052;-92
2021/12/14 06:17:36;;;;;;;8.32;5.75;;;;;;;6.09;100.00;101568.78;6052818;29;20044;-91
2021/12/14 06:20:42;;;;;;;9.13;6.07;;;;;;;6.07;100.00;101570.63;6068133;29;20116;-92
2021/12/14 06:23:45;;;;;;;9.25;6.40;;;;;;;6.10;100.00;101565.34;6063913;29;20113;-92
2021/12/14 06:26:53;;;;;;;10.95;6.70;;;;;;;6.12;100.00;101572.09;6061152;29;20044;-92
2021/12/14 06:30:09;;;;;;;10.27;6.22;;;;;;;6.15;100.00;101571.94;6056104;29;20045;-92
2021/12/14 06:33:14;;;;;;;9.85;6.07;;;;;;;6.18;100.00;101574.38;6039588;29;20041;-91
2021/12/14 06:37:06;;;;;;;10.07;5.78;;;;;;;6.18;100.00;101578.69;6044390;29;20050;-92
2021/12/14 06:40:26;;;;;;;8.23;5.72;;;;;;;6.18;100.00;101581.25;6041116;29;20084;-92
2021/12/14 06:43:36;;;;;;;9.60;6.10;;;;;;;6.13;100.00;101575.47;6057599;29;20049;-92
2021/12/14 06:46:40;;;;;;;10.43;6.30;;;;;;;6.18;100.00;101579.50;6028394;29;20045;-92
2021/12/14 06:49:51;;;;;;;9.52;6.03;;;;;;;6.19;100.00;101586.34;6082546;29;20021;-92
2021/12/14 06:53:11;;;;;;;10.55;6.43;;;;;;;6.17;100.00;101597.59;6065795;29;20064;-92
2021/12/14 06:56:35;;;;;;;10.60;7.07;;;;;;;6.21;100.00;101604.25;6068111;29;20053;-92
2021/12/14 07:00:13;;;;;;;10.60;6.47;;;;;;;6.19;100.00;101608.66;6082371;29;20041;-92
2021/12/14 07:03:21;;;;;;;13.45;7.47;;;;;;;6.28;100.00;101607.41;6063831;29;20130;-92
2021/12/14 07:06:54;;;;;;;10.48;6.80;;;;;;;6.23;100.00;101611.00;6063282;29;20059;-92
2021/12/14 07:10:06;;;;;;;9.73;6.25;;;;;;;6.24;100.00;101614.44;6050513;29;20050;-92
2021/12/14 07:13:17;;;;;;;12.70;7.00;;;;;;;6.19;100.00;101611.22;6078405;29;20048;-92
2021/12/14 07:16:31;;;;;;;11.52;6.88;;;;;;;6.27;100.00;101623.75;6075186;29;20044;-92
2021/12/14 07:19:51;;;;;;;11.55;7.32;;;;;;;6.26;100.00;101620.34;6076787;29;20045;-92
2021/12/14 07:22:57;;;;;;;11.43;7.00;;;;;;;6.23;100.00;101631.56;6074378;29;20049;-92
2021/12/14 07:26:10;;;;;;;10.25;6.65;;;;;;;6.23;100.00;101633.31;6053580;29;20042;-92
2021/12/14 07:29:19;;;;;;;11.30;7.65;;;;;;;6.24;100.00;101640.13;6043553;29;20049;-91
2021/12/14 07:32:42;;;;;;;12.23;7.35;;;;;;;6.29;100.00;101639.94;6061710;29;20051;-91
2021/12/14 07:35:50;;;;;;;12.02;7.45;;;;;;;6.30;100.00;101646.75;6060767;29;20693;-92
2021/12/14 07:39:08;;;;;;;10.70;7.03;;;;;;;6.34;100.00;101643.97;6079001;29;20073;-92
2021/12/14 07:42:15;;;;;;;14.77;8.55;;;;;;;6.37;100.00;101648.97;6076253;29;20065;-91
2021/12/14 07:45:32;;;;;;;13.05;8.45;;;;;;;6.47;100.00;101662.28;6062138;29;20068;-92
2021/12/14 07:49:00;;;;;;;12.27;7.50;;;;;;;6.54;100.00;101661.13;6061090;29;20152;-92
2021/12/14 07:52:40;;;;;;;13.25;8.05;;;;;;;6.50;100.00;101646.69;6061141;29;20047;-92
2021/12/14 07:55:44;;;;;;;13.52;8.73;;;;;;;6.49;100.00;101649.38;5990009;29;20058;-92
2021/12/14 07:58:48;;;;;;;13.27;8.45;;;;;;;6.50;100.00;101646.69;5987261;29;20076;-92
2021/12/14 08:02:15;;;;;;;13.45;8.93;;;;;;;6.53;100.00;101648.31;6038789;29;20416;-92
2021/12/14 08:05:25;;;;;;;16.48;9.70;;;;;;;6.51;100.00;101650.97;6059784;29;20172;-92
2021/12/14 08:08:40;;;;;;;15.83;9.67;;;;;;;6.47;100.00;101647.69;6067793;29;20051;-92
2021/12/14 08:11:49;;;;;;;15.95;10.43;;;;;;;6.53;100.00;101648.31;6065454;29;20052;-92
2021/12/14 08:15:20;;;;;;;17.02;10.30;;;;;;;6.57;100.00;101655.00;6048319;29;20105;-92
2021/12/14 08:18:38;;;;;;;16.13;10.55;;;;;;;6.57;100.00;101660.97;6052625;29;20065;-92
2021/12/14 08:21:45;;;;;;;16.30;9.98;;;;;;;6.56;100.00;101664.47;6077582;29;20037;-92
2021/12/14 08:24:49;;;;;;;16.92;11.13;;;;;;;6.60;100.00;101667.72;6059039;29;20042;-92
2021/12/14 08:28:05;;;;;;;16.42;11.00;;;;;;;6.61;100.00;101664.25;6074472;29;20088;-92
2021/12/14 08:31:08;;;;;;;20.17;11.02;;;;;;;6.65;100.00;101668.34;6061945;29;20077;-92
2021/12/14 08:34:17;;;;;;;19.92;12.48;;;;;;;6.62;100.00;101677.03;6077269;29;20077;-91
2021/12/14 08:37:38;;;;;;;21.25;13.10;;;;;;;6.79;100.00;101675.47;6076553;29;20052;-92
2021/12/14 08:40:45;;;;;;;20.88;13.15;;;;;;;6.83;100.00;101671.84;6082322;29;20052;-92
2021/12/14 08:43:50;;;;;;;23.10;13.68;;;;;;;6.88;100.00;101675.91;6074645;29;20053;-92
2021/12/14 08:46:52;;;;;;;20.58;12.88;;;;;;;6.91;100.00;101680.06;6057562;29;20037;-91
2021/12/14 08:49:58;;;;;;;26.52;13.98;;;;;;;7.06;100.00;101678.53;6053083;29;20052;-91
2021/12/14 08:53:00;;;;;;;22.33;13.80;;;;;;;7.16;100.00;101673.81;6018189;29;20069;-91
2021/12/14 08:56:06;;;;;;;22.98;13.85;;;;;;;7.18;100.00;101674.53;6046306;29;20057;-91
2021/12/14 08:59:10;;;;;;;22.88;14.05;;;;;;;7.17;100.00;101672.88;6040225;29;20428;-91
2021/12/14 09:02:15;;;;;;;20.65;13.68;;;;;;;7.20;100.00;101672.75;6040811;29;20507;-91
2021/12/14 09:05:32;;;;;;;23.17;14.15;;;;;;;7.19;100.00;101676.22;6038971;29;20173;-91
2021/12/14 09:08:35;;;;;;;25.45;14.85;;;;;;;7.23;100.00;101677.75;6038358;29;20059;-91
2021/12/14 09:11:40;;;;;;;24.58;14.32;;;;;;;7.31;100.00;101684.22;6049657;29;20120;-91
2021/12/14 09:14:48;;;;;;;27.52;15.75;;;;;;;7.29;100.00;101672.31;6041552;29;20396;-91
2021/12/14 09:17:52;;;;;;;22.33;14.02;;;;;;;7.41;100.00;101686.38;6049459;29;20080;-91
2021/12/14 09:20:59;;;;;;;24.15;14.30;;;;;;;7.47;100.00;101686.06;6017981;29;20519;-91
2021/12/14 09:24:07;;;;;;;23.30;14.63;;;;;;;7.46;100.00;101682.66;6046684;29;20049;-91
2021/12/14 09:27:14;;;;;;;23.27;14.10;;;;;;;7.57;100.00;101678.75;6055492;29;20852;-91
2021/12/14 09:30:19;;;;;;;23.98;13.70;;;;;;;7.62;100.00;101679.34;6027984;29;20262;-91
2021/12/14 09:33:23;;;;;;;24.58;13.98;;;;;;;7.63;100.00;101679.28;6029526;29;20065;-91
2021/12/14 09:36:29;;;;;;;23.13;14.25;;;;;;;7.71;100.00;101678.91;6027843;29;20427;-91
2021/12/14 09:39:58;;;;;;;21.75;14.10;;;;;;;7.74;100.00;101681.34;6045278;29;20049;-91
2021/12/14 09:43:00;;;;;;;20.85;14.25;;;;;;;7.75;100.00;101675.28;6055088;29;20068;-91
2021/12/14 09:46:04;;;;;;;20.35;12.57;;;;;;;7.84;100.00;101671.41;6037270;29;20072;-91
2021/12/14 09:49:09;;;;;;;21.17;13.15;;;;;;;7.96;100.00;101674.22;6051981;29;20059;-91
2021/12/14 09:52:19;;;;;;;21.63;13.25;;;;;;;7.89;100.00;101672.84;6033146;29;20048;-91
2021/12/14 09:55:28;;;;;;;26.37;15.90;;;;;;;7.97;100.00;101673.34;6040828;29;20045;-91
2021/12/14 09:58:36;;;;;;;19.30;12.43;;;;;;;7.93;100.00;101669.22;6024756;29;20318;-91
2021/12/14 10:01:47;;;;;;;20.40;13.65;;;;;;;8.03;100.00;101666.19;6039985;29;20139;-90
2021/12/14 10:04:54;;;;;;;18.50;12.38;;;;;;;7.99;100.00;101656.00;6036378;29;20393;-91
2021/12/14 10:07:58;;;;;;;22.27;13.93;;;;;;;7.94;100.00;101660.56;6033215;29;20559;-91
2021/12/14 10:11:12;;;;;;;18.75;12.63;;;;;;;7.91;100.00;101659.91;6030930;29;20056;-91
2021/12/14 10:14:18;;;;;;;22.70;13.77;;;;;;;7.96;100.00;101658.75;6035008;29;20045;-91
2021/12/14 10:17:23;;;;;;;20.48;12.98;;;;;;;7.99;100.00;101657.75;6042916;29;20120;-91
2021/12/14 10:20:36;;;;;;;22.00;13.65;;;;;;;7.96;100.00;101658.75;6024259;29;20054;-91
2021/12/14 10:23:40;;;;;;;20.95;13.35;;;;;;;8.06;100.00;101659.13;6044684;29;20193;-91
2021/12/14 10:26:47;;;;;;;22.13;13.25;;;;;;;8.11;100.00;101656.31;6040365;29;20139;-91
2021/12/14 10:29:51;;;;;;;20.05;13.20;;;;;;;8.20;100.00;101650.72;6019934;29;20041;-91
2021/12/14 10:32:54;;;;;;;20.02;13.27;;;;;;;8.29;100.00;101651.97;6032697;29;20049;-91
2021/12/14 10:36:02;;;;;;;20.15;12.57;;;;;;;8.44;100.00;101655.53;6013797;29;20401;-91
2021/12/14 10:42:52;;;;;;;23.23;13.52;;;;;;;8.60;100.00;101653.84;6052984;29;20125;-91
2021/12/14 10:46:21;;;;;;;18.98;11.80;;;;;;;8.61;100.00;101658.06;6052858;29;20063;-91
2021/12/14 10:49:25;;;;;;;18.90;12.50;;;;;;;8.58;100.00;101664.22;6036005;29;20643;-91
2021/12/14 10:52:30;;;;;;;23.05;13.57;;;;;;;8.56;100.00;101657.50;6049244;29;20406;-91
2021/12/14 10:55:38;;;;;;;19.73;12.73;;;;;;;8.59;100.00;101655.56;6031961;29;20045;-91
2021/12/14 10:58:44;;;;;;;21.27;12.73;;;;;;;8.60;100.00;101648.69;6022372;29;20052;-90
2021/12/14 11:01:51;;;;;;;18.30;12.27;;;;;;;8.59;100.00;101647.00;6051952;29;20060;-91
2021/12/14 11:04:58;;;;;;;21.90;12.43;;;;;;;8.49;100.00;101640.66;6052385;29;20056;-91
2021/12/14 11:08:01;;;;;;;20.00;12.77;;;;;;;8.44;100.00;101648.63;6038553;29;20068;-91
2021/12/14 11:11:08;;;;;;;20.38;12.38;;;;;;;8.55;100.00;101648.09;6044821;29;20229;-91
2021/12/14 11:14:13;;;;;;;18.92;11.90;;;;;;;8.55;100.00;101641.19;6030419;29;20136;-91
2021/12/14 11:20:57;;;;;;;19.38;12.85;;;;;;;8.46;100.00;101645.97;6035051;29;20539;-91
2021/12/14 11:23:59;;;;;;;19.17;12.32;;;;;;;8.39;100.00;101641.13;6051577;29;20044;-91
2021/12/14 11:27:16;;;;;;;21.67;13.23;;;;;;;8.40;100.00;101641.97;6060663;29;20048;-91
2021/12/14 11:30:26;;;;;;;21.42;13.40;;;;;;;8.47;100.00;101643.34;6033618;29;20210;-91
2021/12/14 11:33:32;;;;;;;22.23;12.95;;;;;;;8.52;100.00;101636.19;6043698;29;20074;-91
2021/12/14 11:36:38;;;;;;;20.48;12.85;;;;;;;8.46;100.00;101636.50;6048261;29;20105;-91
2021/12/14 11:39:53;;;;;;;25.05;12.40;;;;;;;8.53;100.00;101634.44;6030627;29;20064;-91
2021/12/14 11:43:17;;;;;;;19.52;13.00;;;;;;;8.51;100.00;101642.25;6034861;29;20144;-91
2021/12/14 11:46:22;;;;;;;20.08;12.88;;;;;;;8.55;100.00;101656.66;6015389;29;20057;-91
2021/12/14 11:49:39;;;;;;;21.58;12.52;;;;;;;8.58;100.00;101640.19;6015645;29;20051;-91
2021/12/14 11:53:02;;;;;;;22.15;13.43;;;;;;;8.70;100.00;101643.88;6050600;29;20106;-91
2021/12/14 11:56:16;;;;;;;18.30;11.75;;;;;;;8.68;100.00;101645.69;6034700;29;20045;-90
2021/12/14 11:59:18;;;;;;;20.02;13.02;;;;;;;8.52;100.00;101646.50;6021985;29;20049;-90
2021/12/14 12:02:19;;;;;;;21.45;12.45;;;;;;;8.61;100.00;101647.75;6051635;29;20045;-91
2021/12/14 12:05:30;;;;;;;18.83;11.88;;;;;;;8.55;100.00;101635.19;6047374;29;20053;-91
2021/12/14 12:12:10;;;;;;;18.63;12.63;;;;;;;8.44;100.00;101632.31;6041604;29;20415;-91
2021/12/14 12:15:25;;;;;;;21.42;13.32;;;;;;;8.47;100.00;101642.47;6023206;29;20085;-91
2021/12/14 12:18:27;;;;;;;20.02;13.20;;;;;;;8.50;100.00;101648.31;6052973;29;20450;-90
2021/12/14 12:21:31;;;;;;;20.10;12.48;;;;;;;8.41;100.00;101649.63;6028541;29;20579;-91
2021/12/14 12:24:33;;;;;;;22.17;13.15;;;;;;;8.46;100.00;101646.81;6053215;29;20045;-90
2021/12/14 12:27:54;;;;;;;19.20;12.18;;;;;;;8.53;100.00;101650.75;6042882;29;20558;-91
2021/12/14 12:31:07;;;;;;;18.83;12.95;;;;;;;8.48;100.00;101660.47;6033389;29;20144;-90
2021/12/14 12:34:10;;;;;;;18.27;12.02;;;;;;;8.41;100.00;101647.03;6034361;29;20082;-90
2021/12/14 12:37:14;;;;;;;20.65;12.57;;;;;;;8.36;100.00;101651.56;6048413;29;20106;-91
2021/12/14 12:40:19;;;;;;;21.38;13.43;;;;;;;8.44;100.00;101652.97;6049773;29;20049;-91
2021/12/14 12:43:35;;;;;;;21.50;12.82;;;;;;;8.43;100.00;101652.13;6058268;29;20052;-90
2021/12/14 12:47:01;;;;;;;24.33;12.80;;;;;;;8.47;100.00;101655.38;6033591;29;20089;-91
2021/12/14 12:50:04;;;;;;;18.90;12.07;;;;;;;8.57;100.00;101649.69;6044391;29;20522;-91
2021/12/14 12:53:06;;;;;;;19.77;11.65;;;;;;;8.50;100.00;101650.91;6050561;29;20125;-91
2021/12/14 12:56:13;;;;;;;21.30;12.50;;;;;;;8.51;100.00;101655.16;6031311;29;20063;-91
2021/12/14 12:59:38;;;;;;;21.42;13.13;;;;;;;8.44;100.00;101650.38;6029271;29;20045;-91
2021/12/14 13:06:28;;;;;;;21.95;12.35;;;;;;;8.26;100.00;101660.69;6048544;29;20069;-91
2021/12/14 13:09:30;;;;;;;20.00;12.10;;;;;;;8.26;100.00;101665.88;6035922;29;20042;-91
2021/12/14 13:12:57;;;;;;;23.30;12.70;;;;;;;8.20;100.00;101661.84;6039544;29;20064;-91
2021/12/14 13:16:10;;;;;;;23.13;12.70;;;;;;;8.02;100.00;101659.34;6057883;29;20608;-91
2021/12/14 13:19:15;;;;;;;22.13;13.02;;;;;;;7.87;100.00;101672.09;6037899;29;20057;-91
2021/12/14 13:22:18;;;;;;;20.98;13.05;;;;;;;7.87;100.00;101669.50;6034490;29;20060;-90
2021/12/14 13:25:34;;;;;;;23.77;13.82;;;;;;;7.88;100.00;101672.94;6037846;29;20053;-91
2021/12/14 13:28:37;;;;;;;24.40;14.05;;;;;;;7.82;100.00;101671.50;6041131;29;20315;-91
2021/12/14 13:31:45;;;;;;;23.77;13.05;;;;;;;7.91;100.00;101686.50;6041012;29;20041;-91
2021/12/14 13:35:19;;;;;;;21.85;13.50;;;;;;;7.92;100.00;101677.84;6024210;29;20118;-91
2021/12/14 13:38:21;;;;;;;21.52;14.00;;;;;;;7.94;100.00;101678.63;6040729;29;20041;-90
2021/12/14 13:41:58;;;;;;;21.83;13.15;;;;;;;7.82;100.00;101675.81;6044861;29;20041;-91
2021/12/14 13:45:05;;;;;;;23.08;13.68;;;;;;;7.79;100.00;101676.78;6039882;29;20078;-91
2021/12/14 13:48:11;;;;;;;22.40;13.65;;;;;;;7.73;100.00;101682.25;6051793;29;20065;-91
2021/12/14 13:51:16;;;;;;;22.67;12.95;;;;;;;7.84;100.00;101689.47;6032659;29;20559;-91
2021/12/14 13:54:19;;;;;;;22.17;12.68;;;;;;;7.81;100.00;101687.88;6019532;29;20067;-91
2021/12/14 13:57:20;;;;;;;21.10;12.48;;;;;;;7.82;100.00;101701.59;6035950;29;20057;-91
2021/12/14 14:00:51;;;;;;;23.58;12.80;;;;;;;7.83;100.00;101701.53;6038374;29;20483;-91
2021/12/14 14:04:01;;;;;;;21.08;12.50;;;;;;;7.93;100.00;101713.06;6046370;29;20052;-91
2021/12/14 14:07:03;;;;;;;21.88;12.38;;;;;;;7.84;100.00;101713.50;6030185;29;20087;-91
2021/12/14 14:10:07;;;;;;;21.50;12.68;;;;;;;7.89;100.00;101713.28;6042918;29;20064;-91
2021/12/14 14:13:38;;;;;;;24.48;13.82;;;;;;;7.83;100.00;101708.44;6048928;29;20514;-91
2021/12/14 14:16:49;;;;;;;24.55;13.73;;;;;;;7.87;100.00;101702.19;6033900;29;20139;-91
2021/12/14 14:20:00;;;;;;;22.30;13.05;;;;;;;7.80;100.00;101708.56;6048188;29;20116;-91
2021/12/14 14:23:12;;;;;;;24.60;13.70;;;;;;;7.87;100.00;101713.34;6039872;29;20052;-90
2021/12/14 14:26:20;;;;;;;25.52;12.60;;;;;;;7.89;100.00;101706.38;6043991;29;20474;-91
2021/12/14 14:29:24;;;;;;;25.65;12.93;;;;;;;7.79;100.00;101712.06;6048857;29;20056;-91
2021/12/14 14:32:36;;;;;;;22.33;12.82;;;;;;;7.76;100.00;101718.19;6036050;29;20056;-91
2021/12/14 14:35:56;;;;;;;21.80;12.68;;;;;;;7.73;100.00;101715.78;6051281;29;20060;-90
2021/12/14 14:39:18;;;;;;;24.98;13.73;;;;;;;7.71;100.00;101720.16;6036613;29;20088;-91
2021/12/14 14:42:25;;;;;;;23.88;13.60;;;;;;;7.70;100.00;101721.03;6036044;29;20056;-91
2021/12/14 14:45:28;;;;;;;24.70;14.65;;;;;;;7.63;100.00;101727.44;6022338;29;20076;-91
2021/12/14 14:48:34;;;;;;;22.45;13.75;;;;;;;7.57;100.00;101722.53;6035535;29;20053;-91
2021/12/14 14:51:59;;;;;;;21.75;13.02;;;;;;;7.61;100.00;101727.47;6026664;29;20391;-91
2021/12/14 14:55:28;;;;;;;22.33;13.65;;;;;;;7.57;100.00;101723.38;6032168;29;20499;-91
2021/12/14 14:58:42;;;;;;;22.60;13.95;;;;;;;7.50;100.00;101722.00;6035043;29;20060;-91
2021/12/14 15:01:46;;;;;;;21.88;13.65;;;;;;;7.42;100.00;101722.34;6027107;29;20411;-91
2021/12/14 15:05:08;;;;;;;23.05;13.20;;;;;;;7.40;100.00;101719.00;6001360;29;20516;-91
2021/12/14 15:08:37;;;;;;;24.63;13.73;;;;;;;7.33;100.00;101726.19;6028108;29;20049;-91
2021/12/14 15:11:59;;;;;;;22.73;13.50;;;;;;;7.34;100.00;101717.56;6028320;29;20555;-91
2021/12/14 15:15:13;;;;;;;22.75;12.95;;;;;;;7.29;100.00;101721.25;6018085;29;20053;-91
2021/12/14 15:18:15;;;;;;;23.75;13.82;;;;;;;7.25;100.00;101717.13;6016267;29;20654;-91
2021/12/14 15:21:42;;;;;;;26.48;13.88;;;;;;;7.22;100.00;101710.38;6006140;29;20058;-91
2021/12/14 15:24:56;;;;;;;24.27;13.77;;;;;;;7.20;100.00;101713.94;6006131;29;20057;-91
2021/12/14 15:28:00;;;;;;;27.50;15.73;;;;;;;7.18;100.00;101716.59;6011870;29;20053;-91
2021/12/14 15:31:14;;;;;;;26.83;14.73;;;;;;;7.17;100.00;101719.25;6006769;29;20070;-91
2021/12/14 15:34:16;;;;;;;25.38;14.88;;;;;;;7.17;100.00;101716.66;6020764;29;20144;-91
2021/12/14 15:37:45;;;;;;;26.13;15.02;;;;;;;7.15;100.00;101715.91;5997323;29;20113;-91
2021/12/14 15:40:54;;;;;;;24.70;13.60;;;;;;;7.11;100.00;101722.94;6019740;29;20106;-91
2021/12/14 15:44:13;;;;;;;28.42;15.27;;;;;;;7.15;100.00;101721.03;6020188;29;20113;-91
2021/12/14 15:47:15;;;;;;;28.92;14.95;;;;;;;7.15;100.00;101721.88;5992117;29;20052;-91
2021/12/14 15:50:21;;;;;;;25.67;14.50;;;;;;;7.12;100.00;101722.00;6002827;29;20125;-91
2021/12/14 15:53:29;;;;;;;26.63;14.45;;;;;;;7.04;100.00;101722.38;6022082;29;20049;-91
2021/12/14 15:56:41;;;;;;;25.73;13.05;;;;;;;7.02;100.00;101718.19;6017016;29;20908;-91
2021/12/14 16:00:06;;;;;;;30.73;14.38;;;;;;;6.98;100.00;101727.81;6021499;29;20056;-91